Time;durP1;ratioP1;P1;durP2;ratioP2;P2;SDS_P1;SDS_P2;PMS_P1;PMS_P2;Temp;Humidity;BMP_temperature;BMP_pressure;BME280_temperature;BME280_humidity;BME280_pressure;Samples;Min_cycle;Max_cycle;Signal;HPM_P1;HPM_P2
2022/01/03 00:00:28;;;;;;;3.33;0.60;;;9.40;99.90;;;;;;5102007;28;20190;-73
2022/01/03 00:02:57;;;;;;;3.72;0.70;;;9.40;99.90;;;;;;5098739;28;20775;-73
2022/01/03 00:05:23;;;;;;;7.57;0.70;;;9.40;99.90;;;;;;5056446;28;20053;-74
2022/01/03 00:07:48;;;;;;;4.72;0.80;;;9.60;99.90;;;;;;5054301;28;20039;-73
2022/01/03 00:10:17;;;;;;;2.92;0.65;;;9.50;99.90;;;;;;5100031;28;20071;-73
2022/01/03 00:12:43;;;;;;;3.33;0.60;;;9.50;99.90;;;;;;5054041;28;20071;-73
2022/01/03 00:15:15;;;;;;;4.85;0.90;;;9.60;99.90;;;;;;5089630;28;20052;-73
2022/01/03 00:17:41;;;;;;;6.60;1.30;;;9.70;99.90;;;;;;5105088;28;20051;-73
2022/01/03 00:20:09;;;;;;;5.55;1.23;;;9.80;99.90;;;;;;5071640;28;20369;-73
2022/01/03 00:22:57;;;;;;;4.22;0.90;;;9.80;99.90;;;;;;5060370;28;20048;-73
2022/01/03 00:25:25;;;;;;;10.68;1.50;;;9.90;99.90;;;;;;5053786;28;20485;-73
2022/01/03 00:28:18;;;;;;;6.90;1.33;;;10.00;99.90;;;;;;5066228;28;20037;-73
2022/01/03 00:30:44;;;;;;;9.65;1.67;;;10.10;99.90;;;;;;5099379;28;20396;-73
2022/01/03 00:33:11;;;;;;;7.68;1.30;;;10.20;99.90;;;;;;5045322;28;20048;-73
2022/01/03 00:35:39;;;;;;;7.43;1.30;;;10.20;99.90;;;;;;5088137;28;20045;-72
2022/01/03 00:38:10;;;;;;;6.85;2.00;;;10.30;99.90;;;;;;5104136;28;20079;-72
2022/01/03 00:40:36;;;;;;;13.18;2.10;;;10.40;99.90;;;;;;5092731;28;20059;-73
2022/01/03 00:43:03;;;;;;;7.53;2.13;;;10.50;99.90;;;;;;5054294;28;20044;-73
2022/01/03 00:45:29;;;;;;;13.75;2.00;;;10.50;99.90;;;;;;5053854;28;20052;-73
2022/01/03 00:47:56;;;;;;;12.43;2.55;;;10.50;99.90;;;;;;5089034;28;20093;-73
2022/01/03 00:50:23;;;;;;;10.27;2.25;;;10.60;99.90;;;;;;5084401;28;20032;-72
2022/01/03 00:52:50;;;;;;;13.68;2.50;;;10.60;99.90;;;;;;5046186;28;20040;-73
2022/01/03 00:55:18;;;;;;;12.55;2.25;;;10.70;99.90;;;;;;5069880;28;20079;-73
2022/01/03 00:58:07;;;;;;;13.10;2.25;;;10.70;99.90;;;;;;5055309;28;20048;-72
2022/01/03 01:00:40;;;;;;;10.68;2.60;;;10.70;99.90;;;;;;5052867;28;21514;-73
2022/01/03 01:03:10;;;;;;;13.93;2.30;;;10.70;99.90;;;;;;5050635;28;20396;-73
2022/01/03 01:05:41;;;;;;;10.57;2.45;;;10.80;99.90;;;;;;5105460;28;20048;-73
2022/01/03 01:08:08;;;;;;;11.90;2.28;;;10.80;99.90;;;;;;5089752;28;20049;-73
2022/01/03 01:10:38;;;;;;;14.43;2.17;;;10.70;99.90;;;;;;5055138;28;20041;-72
2022/01/03 01:13:07;;;;;;;12.63;1.92;;;10.70;99.90;;;;;;5098748;28;20093;-73
2022/01/03 01:15:34;;;;;;;12.85;2.28;;;10.70;99.90;;;;;;5069825;28;20373;-73
2022/01/03 01:18:03;;;;;;;9.27;2.03;;;10.70;99.90;;;;;;5100770;28;20473;-73
2022/01/03 01:20:29;;;;;;;16.50;2.15;;;10.60;99.90;;;;;;5065804;28;20052;-73
2022/01/03 01:22:55;;;;;;;12.25;2.50;;;10.60;99.90;;;;;;5101670;28;20093;-73
2022/01/03 01:27:53;;;;;;;15.27;2.00;;;10.60;99.90;;;;;;5099150;28;20049;-73
2022/01/03 01:30:24;;;;;;;15.60;2.10;;;10.60;99.90;;;;;;5068297;28;20037;-76
2022/01/03 01:33:02;;;;;;;11.35;1.95;;;10.60;99.90;;;;;;5048859;28;20119;-73
2022/01/03 01:35:52;;;;;;;16.50;2.47;;;10.60;99.90;;;;;;5069634;28;20051;-75
2022/01/03 01:38:22;;;;;;;11.98;2.53;;;10.50;99.90;;;;;;5061688;28;20116;-73
2022/01/03 01:40:52;;;;;;;15.13;2.65;;;10.60;99.90;;;;;;5053951;28;20085;-73
2022/01/03 01:43:33;;;;;;;18.38;1.92;;;10.50;99.90;;;;;;5079582;28;20048;-74
2022/01/03 01:46:02;;;;;;;14.57;2.35;;;10.50;99.90;;;;;;5065154;28;20139;-74
2022/01/03 01:48:32;;;;;;;26.63;2.83;;;10.50;99.90;;;;;;5070197;28;20036;-74
2022/01/03 01:50:59;;;;;;;19.27;2.50;;;10.50;99.90;;;;;;5067760;28;20040;-73
2022/01/03 01:53:27;;;;;;;18.33;2.60;;;10.50;99.90;;;;;;5051159;28;20479;-74
2022/01/03 01:55:56;;;;;;;15.35;2.22;;;10.50;99.90;;;;;;5068786;28;20043;-73
2022/01/03 01:58:29;;;;;;;14.68;2.38;;;10.50;99.90;;;;;;5100364;28;20032;-73
2022/01/03 02:01:06;;;;;;;9.38;2.10;;;10.50;99.90;;;;;;5060105;28;20041;-74
2022/01/03 02:03:35;;;;;;;17.60;2.45;;;10.50;99.90;;;;;;5092599;28;20109;-73
2022/01/03 02:06:35;;;;;;;15.02;2.40;;;10.50;99.90;;;;;;5065164;28;20525;-73
2022/01/03 02:09:09;;;;;;;15.13;2.30;;;10.40;99.90;;;;;;5064023;28;20123;-74
2022/01/03 02:12:14;;;;;;;16.83;2.58;;;10.50;99.90;;;;;;5062590;28;20037;-74
2022/01/03 02:14:40;;;;;;;16.58;2.30;;;10.50;99.90;;;;;;5062727;28;20063;-74
2022/01/03 02:17:06;;;;;;;12.60;3.13;;;10.40;99.90;;;;;;5045581;28;20129;-74
2022/01/03 02:19:38;;;;;;;22.88;2.72;;;10.40;99.90;;;;;;5069646;28;20068;-74
2022/01/03 02:22:04;;;;;;;16.90;2.75;;;10.50;99.90;;;;;;5061770;28;20385;-74
2022/01/03 02:24:30;;;;;;;18.20;2.60;;;10.40;99.90;;;;;;5087824;28;20048;-74
2022/01/03 02:26:56;;;;;;;23.83;2.85;;;10.40;99.90;;;;;;5069586;28;20043;-74
2022/01/03 02:29:22;;;;;;;17.73;2.42;;;10.40;99.90;;;;;;5103992;28;20073;-74
2022/01/03 02:31:48;;;;;;;18.58;2.85;;;10.50;99.90;;;;;;5056900;28;20041;-74
2022/01/03 02:34:13;;;;;;;19.30;2.65;;;10.50;99.90;;;;;;5059004;28;20075;-74
2022/01/03 02:36:43;;;;;;;15.02;2.17;;;10.70;99.90;;;;;;5028391;28;20479;-74
2022/01/03 02:39:09;;;;;;;25.10;2.70;;;10.50;99.90;;;;;;5070631;28;20036;-74
2022/01/03 02:41:34;;;;;;;18.42;2.13;;;10.50;99.90;;;;;;5065202;28;20087;-74
2022/01/03 02:44:00;;;;;;;22.13;3.22;;;10.50;99.90;;;;;;5106970;28;20028;-74
2022/01/03 02:46:26;;;;;;;17.98;3.25;;;10.50;99.90;;;;;;5080590;28;20091;-72
2022/01/03 02:48:51;;;;;;;11.52;2.15;;;10.50;99.90;;;;;;5053814;28;20052;-72
2022/01/03 02:51:17;;;;;;;22.75;3.17;;;10.50;99.90;;;;;;5104819;28;20044;-72
2022/01/03 02:53:43;;;;;;;11.43;1.90;;;10.60;99.90;;;;;;5072533;28;20524;-71
2022/01/03 02:56:09;;;;;;;17.00;2.40;;;10.50;99.90;;;;;;5070872;28;20434;-72
2022/01/03 02:58:34;;;;;;;19.83;3.08;;;10.50;99.90;;;;;;5076367;28;20072;-71
2022/01/03 03:01:00;;;;;;;18.20;2.17;;;10.50;99.90;;;;;;5070359;28;20461;-72
2022/01/03 03:03:26;;;;;;;17.15;2.47;;;10.50;99.90;;;;;;5062377;28;20052;-73
2022/01/03 03:05:52;;;;;;;14.05;2.15;;;10.50;99.90;;;;;;5093848;28;20033;-72
2022/01/03 03:08:18;;;;;;;14.40;2.13;;;10.50;99.90;;;;;;5100880;28;20392;-71
2022/01/03 03:10:44;;;;;;;19.08;2.67;;;10.40;99.90;;;;;;5104384;28;20056;-72
2022/01/03 03:13:10;;;;;;;18.30;2.45;;;10.40;99.90;;;;;;5093550;28;20037;-72
2022/01/03 03:15:37;;;;;;;21.05;2.50;;;10.50;99.90;;;;;;5079390;28;20063;-72
2022/01/03 03:18:03;;;;;;;20.88;3.22;;;10.40;99.90;;;;;;5072846;28;20045;-72
2022/01/03 03:20:31;;;;;;;23.77;2.72;;;10.50;99.90;;;;;;5071032;28;20036;-72
2022/01/03 03:22:58;;;;;;;20.88;3.00;;;10.40;99.90;;;;;;5055394;28;20093;-72
2022/01/03 03:25:27;;;;;;;19.00;2.65;;;10.40;99.90;;;;;;5053756;28;20580;-72
2022/01/03 03:27:57;;;;;;;13.95;2.42;;;10.40;99.90;;;;;;5108249;28;20039;-72
2022/01/03 03:30:28;;;;;;;21.20;2.55;;;10.40;99.90;;;;;;5093850;28;20037;-72
2022/01/03 03:32:59;;;;;;;21.92;2.95;;;10.40;99.90;;;;;;5072942;28;20108;-73
2022/01/03 03:35:24;;;;;;;20.00;3.08;;;10.40;99.90;;;;;;5057089;28;20040;-73
2022/01/03 03:37:50;;;;;;;17.90;2.85;;;10.40;99.90;;;;;;5073687;28;20070;-71
2022/01/03 03:40:16;;;;;;;20.77;2.65;;;10.40;99.90;;;;;;5057092;28;20044;-73
2022/01/03 03:42:43;;;;;;;20.63;2.20;;;10.30;99.90;;;;;;5074444;28;20052;-73
2022/01/03 03:45:10;;;;;;;20.42;2.58;;;10.30;99.90;;;;;;5107025;28;20044;-72
2022/01/03 03:47:36;;;;;;;19.40;2.83;;;10.30;99.90;;;;;;5107808;28;20132;-73
2022/01/03 03:50:04;;;;;;;15.50;2.63;;;10.30;99.90;;;;;;5106888;28;20123;-72
2022/01/03 03:52:29;;;;;;;16.25;2.92;;;10.30;99.90;;;;;;5056870;28;20106;-72
2022/01/03 03:54:55;;;;;;;18.08;2.92;;;10.30;99.90;;;;;;5104841;28;20044;-72
2022/01/03 03:57:21;;;;;;;29.63;3.05;;;10.20;99.90;;;;;;5073735;28;20054;-72
2022/01/03 03:59:47;;;;;;;20.63;2.53;;;10.20;99.90;;;;;;5073070;28;20071;-72
2022/01/03 04:02:13;;;;;;;12.32;2.25;;;10.20;99.90;;;;;;5056584;28;20044;-73
2022/01/03 04:04:38;;;;;;;21.67;2.78;;;10.20;99.90;;;;;;5074110;28;20047;-73
2022/01/03 04:07:04;;;;;;;17.20;3.00;;;10.10;99.90;;;;;;5073226;28;20119;-72
2022/01/03 04:09:31;;;;;;;17.92;2.38;;;10.10;99.90;;;;;;5056405;28;20089;-74
2022/01/03 04:11:57;;;;;;;26.10;2.83;;;10.10;99.90;;;;;;5074365;28;20052;-73
2022/01/03 04:14:23;;;;;;;27.95;4.00;;;10.00;99.90;;;;;;5058152;28;20059;-74
2022/01/03 04:16:48;;;;;;;19.13;2.80;;;10.10;99.90;;;;;;5073471;28;20464;-72
2022/01/03 04:19:14;;;;;;;19.30;2.88;;;10.30;99.90;;;;;;5072881;28;20036;-73
2022/01/03 04:21:40;;;;;;;25.55;4.03;;;10.00;99.90;;;;;;5073290;28;20045;-72
2022/01/03 04:24:07;;;;;;;17.35;2.90;;;10.00;99.90;;;;;;5057875;28;20049;-72
2022/01/03 04:26:34;;;;;;;16.55;2.28;;;10.00;99.90;;;;;;5072913;28;20047;-73
2022/01/03 04:29:01;;;;;;;18.30;2.60;;;10.00;99.90;;;;;;5106527;28;20044;-73
2022/01/03 04:31:27;;;;;;;13.13;3.33;;;9.90;99.90;;;;;;5073197;28;20052;-73
2022/01/03 04:33:52;;;;;;;16.45;2.28;;;10.00;99.90;;;;;;5072368;28;20087;-73
2022/01/03 04:36:18;;;;;;;14.40;2.25;;;10.10;99.90;;;;;;5073937;28;20064;-73
2022/01/03 04:38:44;;;;;;;18.52;2.47;;;9.90;99.90;;;;;;5056254;28;20052;-73
2022/01/03 04:41:12;;;;;;;20.13;3.15;;;10.00;99.90;;;;;;5072846;28;20052;-73
2022/01/03 04:43:39;;;;;;;24.77;2.65;;;10.00;99.90;;;;;;5072330;28;20372;-74
2022/01/03 04:46:05;;;;;;;24.38;3.10;;;10.00;99.90;;;;;;5072943;28;20071;-74
2022/01/03 04:48:31;;;;;;;22.05;3.00;;;10.10;99.90;;;;;;5056026;28;20489;-73
2022/01/03 04:50:56;;;;;;;32.92;4.05;;;10.30;99.90;;;;;;5055921;28;20131;-73
2022/01/03 04:53:25;;;;;;;22.23;3.28;;;10.30;99.90;;;;;;5072205;28;20055;-74
2022/01/03 04:55:52;;;;;;;24.83;3.42;;;10.10;99.90;;;;;;5072167;28;20051;-74
2022/01/03 04:58:17;;;;;;;17.88;3.42;;;10.10;99.90;;;;;;5056112;28;20041;-73
2022/01/03 05:00:43;;;;;;;17.27;3.15;;;10.10;99.90;;;;;;5072151;28;20051;-73
2022/01/03 05:03:09;;;;;;;25.38;3.22;;;10.10;99.90;;;;;;5037976;28;20156;-73
2022/01/03 05:05:35;;;;;;;17.70;2.55;;;10.20;99.90;;;;;;5068353;28;20044;-73
2022/01/03 05:08:01;;;;;;;27.80;3.30;;;10.30;99.90;;;;;;5105600;28;20033;-73
2022/01/03 05:10:26;;;;;;;22.77;2.72;;;10.20;99.90;;;;;;5072230;28;20051;-73
2022/01/03 05:12:52;;;;;;;20.50;2.63;;;10.20;99.90;;;;;;5072606;28;20093;-73
2022/01/03 05:15:18;;;;;;;23.08;3.20;;;10.20;99.90;;;;;;5071863;28;20043;-74
2022/01/03 05:17:43;;;;;;;16.15;2.55;;;10.20;99.90;;;;;;5105235;28;20037;-74
2022/01/03 05:20:12;;;;;;;21.42;3.30;;;10.20;99.90;;;;;;5072012;28;20041;-74
2022/01/03 05:22:38;;;;;;;25.60;3.65;;;10.20;99.90;;;;;;5054608;28;20048;-74
2022/01/03 05:25:04;;;;;;;16.70;2.20;;;10.20;99.90;;;;;;5071702;28;20075;-73
2022/01/03 05:27:30;;;;;;;21.52;3.13;;;10.10;99.90;;;;;;5067818;28;20114;-73
2022/01/03 05:29:56;;;;;;;19.75;3.00;;;10.10;99.90;;;;;;5053419;28;20477;-73
2022/01/03 05:32:21;;;;;;;26.17;4.00;;;10.20;99.90;;;;;;5065923;28;20052;-73
2022/01/03 05:34:47;;;;;;;25.83;3.47;;;10.20;99.90;;;;;;5070995;28;20049;-73
2022/01/03 05:37:13;;;;;;;24.85;3.55;;;10.20;99.90;;;;;;5087121;28;20041;-73
2022/01/03 05:39:38;;;;;;;23.88;3.90;;;10.10;99.90;;;;;;5082413;28;20036;-73
2022/01/03 05:42:04;;;;;;;15.68;3.00;;;10.10;99.90;;;;;;5070218;28;20374;-74
2022/01/03 05:44:30;;;;;;;32.00;4.18;;;10.10;99.90;;;;;;5037739;28;20052;-73
2022/01/03 05:46:56;;;;;;;28.80;4.57;;;10.10;99.90;;;;;;5071685;28;20119;-74
2022/01/03 05:49:22;;;;;;;20.77;4.00;;;10.10;99.90;;;;;;5071573;28;20046;-74
2022/01/03 05:51:47;;;;;;;23.30;3.92;;;10.10;99.90;;;;;;5074987;28;20554;-73
2022/01/03 05:54:13;;;;;;;20.77;3.20;;;10.20;99.90;;;;;;5071249;28;20350;-73
2022/01/03 05:56:38;;;;;;;21.88;3.40;;;10.10;99.90;;;;;;5070370;28;20380;-73
2022/01/03 05:59:07;;;;;;;29.08;4.28;;;10.30;99.90;;;;;;5071404;28;20036;-73
2022/01/03 06:01:37;;;;;;;27.17;3.67;;;10.10;99.90;;;;;;5054187;28;20115;-74
2022/01/03 06:04:24;;;;;;;26.10;3.90;;;10.10;99.90;;;;;;5071229;28;20040;-73
2022/01/03 06:06:58;;;;;;;24.38;4.03;;;10.00;99.90;;;;;;5084255;28;20052;-73
2022/01/03 06:09:24;;;;;;;27.45;3.22;;;10.00;99.90;;;;;;5071256;28;20040;-74
2022/01/03 06:11:51;;;;;;;23.80;3.45;;;10.00;99.90;;;;;;5069746;28;20045;-73
2022/01/03 06:14:18;;;;;;;24.48;3.35;;;10.10;99.90;;;;;;5054244;28;20071;-74
2022/01/03 06:16:45;;;;;;;23.40;4.00;;;10.10;99.90;;;;;;5070438;28;20461;-73
2022/01/03 06:19:12;;;;;;;30.85;4.25;;;10.10;99.90;;;;;;5061312;28;20039;-73
2022/01/03 06:21:40;;;;;;;22.90;3.47;;;10.00;99.90;;;;;;5069696;28;20043;-73
2022/01/03 06:24:15;;;;;;;22.88;4.00;;;10.10;99.90;;;;;;5070912;28;20063;-73
2022/01/03 06:26:42;;;;;;;21.70;3.63;;;10.10;99.90;;;;;;5053632;28;20127;-73
2022/01/03 06:29:09;;;;;;;18.85;3.00;;;10.10;99.90;;;;;;5054425;28;20347;-73
2022/01/03 06:31:35;;;;;;;26.67;3.15;;;10.10;99.90;;;;;;5050203;28;20040;-73
2022/01/03 06:34:02;;;;;;;26.33;3.33;;;10.10;99.90;;;;;;5054049;28;20085;-73
2022/01/03 06:36:28;;;;;;;18.35;3.05;;;10.20;99.90;;;;;;5069930;28;20138;-73
2022/01/03 06:38:55;;;;;;;24.83;3.05;;;10.10;99.90;;;;;;5100104;28;20049;-73
2022/01/03 06:41:20;;;;;;;28.30;3.50;;;10.20;99.90;;;;;;5081738;28;20032;-73
2022/01/03 06:43:46;;;;;;;26.08;3.97;;;10.20;99.90;;;;;;5069835;28;20109;-73
2022/01/03 06:46:12;;;;;;;20.10;3.35;;;10.20;99.90;;;;;;5052975;28;20474;-73
2022/01/03 06:48:38;;;;;;;21.27;2.38;;;10.10;99.90;;;;;;5053867;28;20040;-73
2022/01/03 06:51:04;;;;;;;26.75;3.58;;;10.10;99.90;;;;;;5070356;28;20093;-73
2022/01/03 06:53:30;;;;;;;26.40;3.20;;;10.30;99.90;;;;;;5101698;28;20450;-74
2022/01/03 06:55:55;;;;;;;20.58;2.55;;;10.00;99.90;;;;;;5070433;28;20079;-72
2022/01/03 06:58:21;;;;;;;31.13;4.05;;;10.00;99.90;;;;;;5069873;28;20119;-73
2022/01/03 07:00:47;;;;;;;23.27;3.00;;;10.10;99.90;;;;;;5073052;28;20062;-73
2022/01/03 07:03:13;;;;;;;29.08;3.53;;;10.20;99.90;;;;;;5073130;28;20093;-73
2022/01/03 07:05:38;;;;;;;24.05;3.13;;;10.20;99.90;;;;;;5072339;28;20509;-73
2022/01/03 07:08:05;;;;;;;14.75;2.67;;;10.20;99.90;;;;;;5091236;28;20075;-72
2022/01/03 07:10:30;;;;;;;20.27;3.35;;;10.20;99.90;;;;;;5074226;28;20040;-73
2022/01/03 07:12:56;;;;;;;24.23;3.58;;;10.20;99.90;;;;;;5090564;28;20446;-73
2022/01/03 07:20:52;;;;;;;25.73;3.42;;;10.20;99.90;;;;;;5079701;28;20084;-73
2022/01/03 07:23:19;;;;;;;18.08;2.95;;;10.20;99.90;;;;;;5073960;28;20055;-73
2022/01/03 07:25:48;;;;;;;33.30;4.10;;;10.20;99.90;;;;;;5082420;28;20045;-73
2022/01/03 07:28:15;;;;;;;31.50;3.63;;;10.20;99.90;;;;;;5057531;28;20123;-72
2022/01/03 07:30:41;;;;;;;24.17;3.35;;;10.20;99.90;;;;;;5074598;28;20044;-73
2022/01/03 07:33:07;;;;;;;26.60;3.75;;;10.20;99.90;;;;;;5040437;28;20135;-72
2022/01/03 07:35:33;;;;;;;28.92;4.22;;;10.20;99.90;;;;;;5097536;28;20056;-73
2022/01/03 07:38:00;;;;;;;21.95;3.13;;;10.20;99.90;;;;;;5073562;28;20049;-73
2022/01/03 07:40:30;;;;;;;23.02;3.75;;;10.20;99.90;;;;;;5073778;28;20051;-73
2022/01/03 07:42:59;;;;;;;26.17;4.60;;;10.20;99.90;;;;;;5021251;28;20045;-73
2022/01/03 07:45:25;;;;;;;19.23;3.75;;;10.20;99.90;;;;;;5071829;28;20101;-73
2022/01/03 07:47:51;;;;;;;22.70;3.30;;;10.20;99.90;;;;;;5073590;28;20037;-74
2022/01/03 07:50:18;;;;;;;29.52;4.00;;;10.20;99.90;;;;;;5073134;28;20044;-73
2022/01/03 07:52:44;;;;;;;23.88;3.72;;;10.20;99.90;;;;;;5077289;28;20059;-74
2022/01/03 07:55:12;;;;;;;29.10;4.15;;;10.30;99.90;;;;;;5067795;28;20048;-73
2022/01/03 07:57:39;;;;;;;20.67;3.83;;;10.30;99.90;;;;;;5073036;28;20380;-74
2022/01/03 08:00:14;;;;;;;30.02;4.85;;;10.30;99.90;;;;;;5056605;28;20394;-73
2022/01/03 08:02:41;;;;;;;28.77;3.85;;;10.30;99.90;;;;;;5056736;28;20051;-73
2022/01/03 08:05:09;;;;;;;28.15;3.63;;;10.30;99.90;;;;;;5098064;28;20053;-74
2022/01/03 08:07:35;;;;;;;24.65;4.13;;;10.30;99.90;;;;;;5106374;28;20054;-74
2022/01/03 08:10:04;;;;;;;31.90;7.90;;;10.40;99.90;;;;;;5073190;28;20094;-75
2022/01/03 08:12:29;;;;;;;31.52;4.40;;;10.30;99.90;;;;;;5055746;28;20036;-76
2022/01/03 08:14:55;;;;;;;29.25;3.47;;;10.30;99.90;;;;;;5106018;28;20094;-72
2022/01/03 08:17:21;;;;;;;23.67;3.42;;;10.30;99.90;;;;;;5056337;28;20044;-72
2022/01/03 08:19:46;;;;;;;25.23;3.45;;;10.30;99.90;;;;;;5072844;28;20048;-73
2022/01/03 08:22:12;;;;;;;30.58;4.05;;;10.30;99.90;;;;;;5072504;28;20527;-72
2022/01/03 08:24:38;;;;;;;22.98;3.35;;;10.30;99.90;;;;;;5082964;28;20412;-73
2022/01/03 08:27:04;;;;;;;32.20;4.40;;;10.30;99.90;;;;;;5073146;28;20044;-73
2022/01/03 08:29:29;;;;;;;27.20;3.10;;;10.30;99.90;;;;;;5072758;28;20036;-72
2022/01/03 08:31:55;;;;;;;23.67;3.17;;;10.30;99.90;;;;;;5089447;28;20040;-72
2022/01/03 08:34:21;;;;;;;27.23;4.00;;;10.40;99.90;;;;;;5105484;28;20060;-72
2022/01/03 08:36:47;;;;;;;23.20;2.88;;;10.40;99.90;;;;;;5055959;28;20185;-73
2022/01/03 08:39:13;;;;;;;19.50;3.47;;;10.40;99.90;;;;;;5072806;28;20536;-73
2022/01/03 08:41:39;;;;;;;30.08;3.88;;;10.40;99.90;;;;;;5088475;28;20075;-72
2022/01/03 08:44:05;;;;;;;17.77;3.28;;;10.40;99.90;;;;;;5105129;28;20037;-72
2022/01/03 08:46:31;;;;;;;18.70;2.70;;;10.40;99.90;;;;;;5106002;28;20484;-72
2022/01/03 08:48:57;;;;;;;24.85;4.43;;;10.50;99.90;;;;;;5105741;28;20058;-72
2022/01/03 08:51:25;;;;;;;18.05;2.92;;;10.50;99.90;;;;;;5095774;28;20036;-72
2022/01/03 08:53:51;;;;;;;24.63;3.63;;;10.50;99.90;;;;;;5067284;28;20048;-71
2022/01/03 08:56:17;;;;;;;21.77;3.53;;;10.50;99.90;;;;;;5106464;28;20044;-72
2022/01/03 08:58:43;;;;;;;25.63;3.30;;;10.50;99.90;;;;;;5096282;28;20492;-72
2022/01/03 09:01:09;;;;;;;20.98;2.88;;;10.60;99.90;;;;;;5106107;27;20095;-72
2022/01/03 09:03:35;;;;;;;16.23;2.30;;;10.50;99.90;;;;;;5104189;27;20043;-72
2022/01/03 09:06:00;;;;;;;23.98;3.38;;;10.60;99.90;;;;;;5075750;28;20512;-71
2022/01/03 09:08:26;;;;;;;18.42;2.53;;;10.60;99.90;;;;;;5080649;28;20044;-72
2022/01/03 09:10:53;;;;;;;21.38;3.55;;;10.60;99.90;;;;;;5072354;28;20199;-72
2022/01/03 09:13:20;;;;;;;20.02;2.72;;;10.60;99.90;;;;;;5058776;28;20044;-71
2022/01/03 09:15:48;;;;;;;21.75;3.03;;;10.60;99.90;;;;;;5065801;28;20044;-71
2022/01/03 09:18:15;;;;;;;18.13;3.00;;;10.60;99.90;;;;;;5065901;28;20052;-72
2022/01/03 09:20:41;;;;;;;18.08;2.90;;;10.60;99.90;;;;;;5072121;28;20067;-71
2022/01/03 09:23:14;;;;;;;27.55;4.10;;;10.70;99.90;;;;;;5097163;28;20048;-72
2022/01/03 09:30:51;;;;;;;24.38;3.20;;;10.70;99.90;;;;;;5099703;28;20044;-72
2022/01/03 09:33:17;;;;;;;22.20;3.85;;;10.70;99.90;;;;;;5082293;28;20062;-71
2022/01/03 09:35:44;;;;;;;19.30;2.92;;;10.70;99.90;;;;;;5093156;28;20052;-72
2022/01/03 09:38:09;;;;;;;22.95;3.58;;;10.70;99.90;;;;;;5068146;28;20413;-75
2022/01/03 09:40:39;;;;;;;20.98;3.00;;;10.70;99.90;;;;;;5062453;28;20044;-76
2022/01/03 09:43:08;;;;;;;24.73;2.72;;;10.70;99.90;;;;;;5063558;28;20044;-75
2022/01/03 09:45:34;;;;;;;17.27;2.78;;;10.70;99.90;;;;;;5091657;28;20102;-76
2022/01/03 09:48:02;;;;;;;15.40;3.08;;;10.70;99.90;;;;;;5096846;28;20073;-74
2022/01/03 09:50:31;;;;;;;21.35;3.00;;;10.80;99.90;;;;;;5054222;28;20127;-77
2022/01/03 09:52:58;;;;;;;10.93;2.08;;;10.80;99.90;;;;;;5071102;28;20040;-73
2022/01/03 09:55:24;;;;;;;22.15;3.70;;;10.80;99.90;;;;;;5070639;28;20102;-73
2022/01/03 09:57:50;;;;;;;20.17;3.03;;;10.80;99.90;;;;;;5052418;28;20045;-76
2022/01/03 10:00:22;;;;;;;22.73;3.25;;;10.80;99.90;;;;;;5084629;28;20504;-74
2022/01/03 10:02:52;;;;;;;24.63;3.35;;;10.80;99.90;;;;;;5081740;28;20078;-82
2022/01/03 10:05:18;;;;;;;19.25;3.20;;;10.90;99.90;;;;;;5089714;28;20116;-81
2022/01/03 10:07:44;;;;;;;20.20;3.35;;;10.90;99.90;;;;;;5063521;28;20049;-80
2022/01/03 10:10:11;;;;;;;23.83;2.90;;;10.90;99.90;;;;;;5073098;28;20128;-79
2022/01/03 10:12:37;;;;;;;24.15;3.50;;;10.90;99.90;;;;;;5053086;28;20053;-83
2022/01/03 10:15:08;;;;;;;18.17;3.15;;;10.90;99.90;;;;;;5083753;28;20045;-77
2022/01/03 10:17:35;;;;;;;;;;;11.00;99.90;;;;;;5096540;28;20116;-73
2022/01/03 10:20:01;;;;;;;27.23;2.65;;;11.00;99.90;;;;;;5053515;28;19928;-72
2022/01/03 10:22:29;;;;;;;20.15;3.05;;;11.10;99.90;;;;;;5035562;28;20485;-73
2022/01/03 10:24:56;;;;;;;23.77;3.38;;;11.20;99.90;;;;;;5071041;28;20040;-73
2022/01/03 10:27:24;;;;;;;21.25;2.85;;;11.20;99.90;;;;;;5054025;28;20052;-72
2022/01/03 10:29:57;;;;;;;21.83;3.60;;;11.30;99.90;;;;;;5070382;28;20355;-72
2022/01/03 10:32:31;;;;;;;22.65;3.30;;;11.30;99.90;;;;;;5080208;28;20085;-72
2022/01/03 10:35:12;;;;;;;14.65;3.20;;;11.20;99.90;;;;;;5090580;28;20041;-73
2022/01/03 10:37:38;;;;;;;14.02;2.50;;;11.30;99.90;;;;;;5102908;28;20048;-73
2022/01/03 10:40:25;;;;;;;15.98;2.78;;;11.30;99.90;;;;;;5104750;28;20449;-73
2022/01/03 10:42:52;;;;;;;24.17;2.75;;;11.30;99.90;;;;;;5055531;28;20076;-72
2022/01/03 10:45:30;;;;;;;25.77;3.13;;;11.30;99.90;;;;;;5070290;28;20431;-73
2022/01/03 10:47:56;;;;;;;20.95;3.65;;;11.30;99.90;;;;;;5054145;28;20047;-73
2022/01/03 10:50:24;;;;;;;19.33;3.20;;;11.40;99.90;;;;;;5084321;28;20435;-73
2022/01/03 10:52:50;;;;;;;18.75;2.65;;;11.30;99.90;;;;;;5070585;28;20041;-73
2022/01/03 10:55:21;;;;;;;26.83;3.42;;;11.30;99.90;;;;;;5104424;28;20044;-73
2022/01/03 10:57:54;;;;;;;20.08;3.22;;;11.20;99.90;;;;;;5070903;28;20041;-73
2022/01/03 11:00:29;;;;;;;28.50;3.15;;;11.20;99.90;;;;;;5070418;28;20354;-74
2022/01/03 11:03:21;;;;;;;24.58;3.20;;;11.20;99.90;;;;;;5074360;28;20110;-73
2022/01/03 11:05:53;;;;;;;23.58;3.30;;;11.30;99.90;;;;;;5094068;28;20037;-73
2022/01/03 11:11:08;;;;;;;17.55;2.97;;;11.40;99.90;;;;;;5070834;28;20056;-73
2022/01/03 11:13:41;;;;;;;18.00;2.65;;;11.30;99.90;;;;;;5075878;28;20076;-73
2022/01/03 11:16:08;;;;;;;21.15;2.83;;;11.30;99.90;;;;;;5058609;28;20059;-74
2022/01/03 11:18:37;;;;;;;20.67;3.13;;;11.20;99.90;;;;;;5053613;28;20045;-72
2022/01/03 11:21:13;;;;;;;22.10;2.72;;;11.10;99.90;;;;;;5069822;28;20477;-73
2022/01/03 11:23:44;;;;;;;21.77;3.55;;;11.10;99.90;;;;;;5070374;28;20566;-73
2022/01/03 11:26:12;;;;;;;19.75;3.25;;;11.10;99.90;;;;;;5069823;28;20040;-73
2022/01/03 11:28:40;;;;;;;22.17;3.65;;;11.10;99.90;;;;;;5070304;28;20037;-72
2022/01/03 11:31:07;;;;;;;16.15;3.50;;;11.20;99.90;;;;;;5069899;28;20071;-73
2022/01/03 11:33:35;;;;;;;19.75;3.80;;;11.20;99.90;;;;;;5036907;28;20111;-73
2022/01/03 11:36:02;;;;;;;18.17;3.70;;;11.20;99.90;;;;;;5103369;28;20128;-73
2022/01/03 11:38:30;;;;;;;26.00;3.40;;;11.20;99.90;;;;;;5103823;28;20051;-72
2022/01/03 11:41:05;;;;;;;21.10;2.95;;;11.20;99.90;;;;;;5104085;28;20489;-74
2022/01/03 11:43:33;;;;;;;16.75;2.90;;;11.30;99.90;;;;;;5093696;28;20047;-72
2022/01/03 11:45:59;;;;;;;25.27;4.07;;;11.20;99.90;;;;;;5070036;28;20427;-72
2022/01/03 11:48:26;;;;;;;24.23;3.95;;;11.20;99.90;;;;;;5072978;28;20045;-73
2022/01/03 11:51:04;;;;;;;19.23;3.38;;;11.20;99.90;;;;;;5073712;28;20485;-73
2022/01/03 11:53:33;;;;;;;19.57;3.43;;;11.20;99.90;;;;;;5057003;28;20041;-73
2022/01/03 11:56:13;;;;;;;23.25;3.17;;;11.10;99.90;;;;;;5073990;28;20123;-73
2022/01/03 11:59:19;;;;;;;16.08;2.72;;;11.20;99.90;;;;;;5056977;28;20036;-72
2022/01/03 12:04:37;;;;;;;23.35;3.00;;;11.30;99.90;;;;;;5059768;28;20059;-73
2022/01/03 12:07:15;;;;;;;22.73;2.83;;;11.50;99.90;;;;;;5085752;28;20068;-73
2022/01/03 12:09:43;;;;;;;23.02;2.83;;;11.50;99.90;;;;;;5056807;28;20388;-73
2022/01/03 12:12:38;;;;;;;22.67;2.92;;;11.60;99.90;;;;;;5056388;28;20622;-73
2022/01/03 12:15:05;;;;;;;15.55;3.30;;;12.00;99.90;;;;;;5090557;28;20098;-72
2022/01/03 12:17:45;;;;;;;19.27;2.80;;;12.00;99.90;;;;;;5081038;28;20071;-73
2022/01/03 12:20:12;;;;;;;16.57;2.53;;;11.80;99.90;;;;;;5056773;28;20043;-73
2022/01/03 12:22:52;;;;;;;24.25;3.40;;;11.70;99.90;;;;;;5056152;28;20294;-73
2022/01/03 12:25:26;;;;;;;21.73;3.53;;;11.50;99.90;;;;;;5074281;28;20041;-72
2022/01/03 12:28:07;;;;;;;16.02;2.65;;;11.50;99.90;;;;;;5100901;28;20082;-72
2022/01/03 12:30:54;;;;;;;15.52;2.55;;;11.40;99.90;;;;;;5106646;28;20047;-72
2022/01/03 12:33:21;;;;;;;17.23;3.47;;;11.50;99.90;;;;;;5072947;28;20499;-72
2022/01/03 12:35:48;;;;;;;12.43;2.50;;;11.60;99.90;;;;;;5106949;28;20519;-72
2022/01/03 12:38:19;;;;;;;23.50;2.47;;;11.60;99.90;;;;;;5104349;28;20045;-73
2022/01/03 12:40:53;;;;;;;19.77;3.10;;;11.60;99.90;;;;;;5102752;28;20029;-73
2022/01/03 12:43:36;;;;;;;15.38;2.72;;;11.70;99.90;;;;;;5056139;28;20044;-73
2022/01/03 12:46:04;;;;;;;17.63;2.92;;;11.60;99.90;;;;;;5052484;28;20092;-72
2022/01/03 12:48:33;;;;;;;22.40;3.03;;;11.70;99.90;;;;;;5089156;28;20045;-73
2022/01/03 12:51:03;;;;;;;17.25;2.75;;;11.60;99.90;;;;;;5077161;28;20358;-72
2022/01/03 12:53:31;;;;;;;25.63;3.50;;;11.60;99.90;;;;;;5106597;28;20048;-75
2022/01/03 12:56:00;;;;;;;22.25;2.63;;;11.60;99.90;;;;;;5072559;28;20151;-74
2022/01/03 12:58:25;;;;;;;24.42;3.33;;;11.60;99.90;;;;;;5077273;28;20093;-75
2022/01/03 13:01:06;;;;;;;25.30;2.85;;;11.60;99.90;;;;;;5072197;28;20369;-76
2022/01/03 13:03:49;;;;;;;15.95;2.50;;;11.60;99.90;;;;;;5101122;28;20036;-76